WetterOnline ( https://www.wetteronline.de )

Wetter aktuell Konstanz

Aktuelles Wetter: Konstanz (397m)

6-stündlich | Neueste Meldungen
Ortszeit Temperatur Wetter
Mo, 04.03. 13:00 8.0° C bedeckt
Mo, 04.03. 7:00 6.3° C bedeckt
Mo, 04.03. 1:00 6.9° C wolkig
So, 03.03. 19:00 12.4° C wolkig
So, 03.03. 13:00 13.8° C wolkig
So, 03.03. 7:00 4.9° C bedeckt
So, 03.03. 1:00 4.9° C bedeckt
Sa, 02.03. 19:00 9.1° C bedeckt
Ortszeit Temperatur Wetter
Mo, 04.03. 16:30 8.5° C bedeckt
Mo, 04.03. 16:20 8.5° C bedeckt
Mo, 04.03. 16:10 8.6° C bedeckt
Mo, 04.03. 16:00 8.4° C bedeckt
Mo, 04.03. 15:50 8.4° C bedeckt
Mo, 04.03. 15:40 8.3° C bedeckt
Mo, 04.03. 15:30 8.3° C bedeckt
Mo, 04.03. 15:00 8.1° C bedeckt
Mo, 04.03. 14:30 8.2° C bedeckt
Mo, 04.03. 14:00 8.0° C bedeckt
Mo, 04.03. 13:30 7.7° C bedeckt
Ortszeit Relative Feuchte Sichtweite
Mo, 04.03. 13:00 80% 35 km
Mo, 04.03. 7:00 85% 28 km
Mo, 04.03. 1:00 83% 30 km
So, 03.03. 19:00 39% 65 km
So, 03.03. 13:00 61% 45 km
So, 03.03. 7:00 91% 11 km
So, 03.03. 1:00 92% 30 km
Sa, 02.03. 19:00 80% >70 km
Ortszeit Relative Feuchte Sichtweite
Mo, 04.03. 16:30 77% 40 km
Mo, 04.03. 16:20 77% -
Mo, 04.03. 16:10 77% -
Mo, 04.03. 16:00 77% 30 km
Mo, 04.03. 15:50 77% -
Mo, 04.03. 15:40 78% -
Mo, 04.03. 15:30 79% 35 km
Mo, 04.03. 15:00 79% 35 km
Mo, 04.03. 14:30 80% 30 km
Mo, 04.03. 14:00 80% 35 km
Mo, 04.03. 13:30 80% 35 km
Ortszeit Niederschlagsmenge Niederschlagsart
Mo, 04.03. 13:00 0.1 l/m2 in 6 Std. Sprühregen
Mo, 04.03. 7:00 0.0 l/m2 in 12 Std. -
Mo, 04.03. 1:00 0.0 l/m2 in 6 Std. -
So, 03.03. 19:00 0.0 l/m2 in 12 Std. -
So, 03.03. 13:00 0.0 l/m2 in 6 Std. -
So, 03.03. 7:00 0.0 l/m2 in 12 Std. -
So, 03.03. 1:00 0.0 l/m2 in 6 Std. -
Sa, 02.03. 19:00 0.0 l/m2 in 12 Std. -
Ortszeit Niederschlagsmenge Niederschlagsart
Mo, 04.03. 16:30 0.0 l/m2 in 30 Min -
Mo, 04.03. 16:20 keine Meldung -
Mo, 04.03. 16:10 keine Meldung -
Mo, 04.03. 16:00 0.0 l/m2 in 1 Std. -
Mo, 04.03. 15:50 keine Meldung -
Mo, 04.03. 15:40 keine Meldung -
Mo, 04.03. 15:30 0.0 l/m2 in 30 Min -
Mo, 04.03. 15:00 0.0 l/m2 in 1 Std. -
Mo, 04.03. 14:30 0.0 l/m2 in 30 Min -
Mo, 04.03. 14:00 0.0 l/m2 in 1 Std. -
Mo, 04.03. 13:30 0.0 l/m2 in 30 Min -
Ortszeit Stärke Spitze Richtung
km/h Bft. km/h Grad Sektor
Mo, 04.03. 13:00 9 2 24 270° W
Mo, 04.03. 7:00 11 2 32 290° W
Mo, 04.03. 1:00 7 2 29 280° W
So, 03.03. 19:00 4 1 22 20° N
So, 03.03. 13:00 4 1 14 210° SW
So, 03.03. 7:00 6 1 11 340° N
So, 03.03. 1:00 4 1 11 10° N
Sa, 02.03. 19:00 4 1 18 60° NO
Ortszeit Stärke Spitze Richtung
km/h Bft. km/h Grad Sektor
Mo, 04.03. 16:30 7 2 11 280° W
Mo, 04.03. 16:20 7 2 - 280° W
Mo, 04.03. 16:10 7 2 - 280° W
Mo, 04.03. 16:00 7 2 14 270° W
Mo, 04.03. 15:50 7 2 - 270° W
Mo, 04.03. 15:40 7 2 - 270° W
Mo, 04.03. 15:30 9 2 15 270° W
Mo, 04.03. 15:00 9 2 15 260° W
Mo, 04.03. 14:30 9 2 15 270° W
Mo, 04.03. 14:00 9 2 15 260° W
Mo, 04.03. 13:30 9 2 15 270° W
Ortszeit Untergrenze Bedeckung Gattung
total tief tief mittel hoch
Mo, 04.03. 13:00 330 m 8/8 8/8 - - -
Mo, 04.03. 7:00 690 m 8/8 8/8 - - -
Mo, 04.03. 1:00 8100 m 8/8 0/8 - - -
So, 03.03. 19:00 7800 m 7/8 0/8 - - -
So, 03.03. 13:00 4500 m 8/8 8/8 - - -
So, 03.03. 7:00 3000 m 8/8 8/8 - - -
So, 03.03. 1:00 3900 m 8/8 8/8 - - -
Sa, 02.03. 19:00 3300 m 8/8 8/8 - - -
Ortszeit Bedeckungsgrad in Achtel und Wolkenuntergrenze
Mo, 04.03. 16:30 8(1050m)
Mo, 04.03. 16:20 8(1050m)
Mo, 04.03. 16:10 8
Mo, 04.03. 16:00 8(1080m)
Mo, 04.03. 15:50 8(1080m)
Mo, 04.03. 15:40 8
Mo, 04.03. 15:30 8(1080m)
Mo, 04.03. 15:00 8(1050m)
Mo, 04.03. 14:30 8(1050m)
Mo, 04.03. 14:00 5(660m) 8(1080m)
Mo, 04.03. 13:30 4(330m) 6(750m) 8(1080m)
Ortszeit Luftdruck NN (hPa) Tendenz (hPa in 3 Std.)
Mo, 04.03. 13:00 1012 + 0,6
Mo, 04.03. 7:00 1010 + 2,7
Mo, 04.03. 1:00 1005 + 3,1
So, 03.03. 19:00 999 + 1,6
So, 03.03. 13:00 997 - 1,0
So, 03.03. 7:00 1000 - 0,2
So, 03.03. 1:00 1001 - 0,5
Sa, 02.03. 19:00 1001 - 0,8
Ortszeit Luftdruck NN (hPa) Tendenz (hPa in 3 Std.)
Mo, 04.03. 16:30 1011 - 0,8
Mo, 04.03. 16:20 1011 keine Meldung
Mo, 04.03. 16:10 1011 keine Meldung
Mo, 04.03. 16:00 1011 - 0,8
Mo, 04.03. 15:50 1011 keine Meldung
Mo, 04.03. 15:40 1011 keine Meldung
Mo, 04.03. 15:30 1011 - 0,9
Mo, 04.03. 15:00 1011 - 0,9
Mo, 04.03. 14:30 1011 - 0,7
Mo, 04.03. 14:00 1012 - 0,4
Mo, 04.03. 13:30 1012 + 0,1
Ortszeit Schneehöhe (cm)
Mo, 04.03. 13:00 0
Mo, 04.03. 7:00 0
Mo, 04.03. 1:00 0
So, 03.03. 19:00 0
So, 03.03. 13:00 0
So, 03.03. 7:00 0
So, 03.03. 1:00 0
Sa, 02.03. 19:00 0
Ortszeit Schneehöhe (cm)
Mo, 04.03. 16:30 0
Mo, 04.03. 16:20 0
Mo, 04.03. 16:10 -
Mo, 04.03. 16:00 0
Mo, 04.03. 15:50 0
Mo, 04.03. 15:40 -
Mo, 04.03. 15:30 0
Mo, 04.03. 15:00 0
Mo, 04.03. 14:30 0
Mo, 04.03. 14:00 0
Mo, 04.03. 13:30 0
Link zu dieser Seite / Seite empfehlen

Das Wetter in ...